sensor_id;sensor_type;location;lat;lon;timestamp;P1;durP1;ratioP1;P2;durP2;ratioP2
21837;SDS011;11081;45.946;6.140;2023-06-10T00:00:55;7.18;;;6.00;;
21837;SDS011;11081;45.946;6.140;2023-06-10T00:03:23;10.10;;;5.28;;
21837;SDS011;11081;45.946;6.140;2023-06-10T00:05:52;8.02;;;6.03;;
21837;SDS011;11081;45.946;6.140;2023-06-10T00:08:20;7.40;;;5.65;;
21837;SDS011;11081;45.946;6.140;2023-06-10T00:10:48;7.90;;;5.88;;
21837;SDS011;11081;45.946;6.140;2023-06-10T00:13:16;7.45;;;5.80;;
21837;SDS011;11081;45.946;6.140;2023-06-10T00:15:44;7.75;;;5.95;;
21837;SDS011;11081;45.946;6.140;2023-06-10T00:18:14;7.40;;;5.70;;
21837;SDS011;11081;45.946;6.140;2023-06-10T00:20:42;6.72;;;5.93;;
21837;SDS011;11081;45.946;6.140;2023-06-10T00:23:11;7.75;;;5.97;;
21837;SDS011;11081;45.946;6.140;2023-06-10T00:25:39;10.75;;;6.50;;
21837;SDS011;11081;45.946;6.140;2023-06-10T00:28:07;9.05;;;6.25;;
21837;SDS011;11081;45.946;6.140;2023-06-10T00:30:35;7.35;;;6.03;;
21837;SDS011;11081;45.946;6.140;2023-06-10T00:33:03;9.75;;;6.15;;
21837;SDS011;11081;45.946;6.140;2023-06-10T00:35:35;6.15;;;5.25;;
21837;SDS011;11081;45.946;6.140;2023-06-10T00:38:03;8.15;;;5.95;;
21837;SDS011;11081;45.946;6.140;2023-06-10T00:40:33;7.13;;;6.10;;
21837;SDS011;11081;45.946;6.140;2023-06-10T00:43:01;7.10;;;5.95;;
21837;SDS011;11081;45.946;6.140;2023-06-10T00:45:29;10.88;;;6.85;;
21837;SDS011;11081;45.946;6.140;2023-06-10T00:47:57;10.05;;;6.43;;
21837;SDS011;11081;45.946;6.140;2023-06-10T00:50:25;10.73;;;6.28;;
21837;SDS011;11081;45.946;6.140;2023-06-10T00:52:55;9.15;;;6.90;;
21837;SDS011;11081;45.946;6.140;2023-06-10T00:55:23;8.38;;;6.72;;
21837;SDS011;11081;45.946;6.140;2023-06-10T00:57:53;9.10;;;6.53;;
21837;SDS011;11081;45.946;6.140;2023-06-10T01:00:21;9.93;;;6.47;;
21837;SDS011;11081;45.946;6.140;2023-06-10T01:02:49;11.45;;;7.20;;
21837;SDS011;11081;45.946;6.140;2023-06-10T01:05:19;10.00;;;6.85;;
21837;SDS011;11081;45.946;6.140;2023-06-10T01:07:52;11.25;;;7.07;;
21837;SDS011;11081;45.946;6.140;2023-06-10T01:10:31;8.63;;;6.63;;
21837;SDS011;11081;45.946;6.140;2023-06-10T01:13:02;11.75;;;7.22;;
21837;SDS011;11081;45.946;6.140;2023-06-10T01:15:33;11.68;;;6.72;;
21837;SDS011;11081;45.946;6.140;2023-06-10T01:18:03;8.65;;;7.20;;
21837;SDS011;11081;45.946;6.140;2023-06-10T01:20:35;8.98;;;6.88;;
21837;SDS011;11081;45.946;6.140;2023-06-10T01:23:08;9.05;;;6.95;;
21837;SDS011;11081;45.946;6.140;2023-06-10T01:25:38;8.55;;;6.90;;
21837;SDS011;11081;45.946;6.140;2023-06-10T01:28:13;10.98;;;7.05;;
21837;SDS011;11081;45.946;6.140;2023-06-10T01:30:46;7.82;;;6.13;;
21837;SDS011;11081;45.946;6.140;2023-06-10T01:33:26;9.57;;;6.20;;
21837;SDS011;11081;45.946;6.140;2023-06-10T01:35:56;12.10;;;6.57;;
21837;SDS011;11081;45.946;6.140;2023-06-10T01:38:27;8.57;;;5.85;;
21837;SDS011;11081;45.946;6.140;2023-06-10T01:41:00;8.30;;;6.75;;
21837;SDS011;11081;45.946;6.140;2023-06-10T01:43:31;9.07;;;6.78;;
21837;SDS011;11081;45.946;6.140;2023-06-10T01:46:00;15.50;;;6.78;;
21837;SDS011;11081;45.946;6.140;2023-06-10T01:48:29;9.77;;;6.30;;
21837;SDS011;11081;45.946;6.140;2023-06-10T01:50:57;10.73;;;6.75;;
21837;SDS011;11081;45.946;6.140;2023-06-10T01:53:25;9.35;;;5.82;;
21837;SDS011;11081;45.946;6.140;2023-06-10T01:55:54;9.27;;;6.72;;
21837;SDS011;11081;45.946;6.140;2023-06-10T01:58:22;7.30;;;5.88;;
21837;SDS011;11081;45.946;6.140;2023-06-10T02:00:51;8.23;;;6.30;;
21837;SDS011;11081;45.946;6.140;2023-06-10T02:03:19;8.80;;;6.50;;
21837;SDS011;11081;45.946;6.140;2023-06-10T02:05:47;9.35;;;6.20;;
21837;SDS011;11081;45.946;6.140;2023-06-10T02:08:15;10.15;;;6.38;;
21837;SDS011;11081;45.946;6.140;2023-06-10T02:10:44;11.43;;;6.20;;
21837;SDS011;11081;45.946;6.140;2023-06-10T02:13:13;10.00;;;6.70;;
21837;SDS011;11081;45.946;6.140;2023-06-10T02:15:42;7.20;;;6.07;;
21837;SDS011;11081;45.946;6.140;2023-06-10T02:18:10;11.00;;;6.07;;
21837;SDS011;11081;45.946;6.140;2023-06-10T02:20:38;8.27;;;5.93;;
21837;SDS011;11081;45.946;6.140;2023-06-10T02:23:06;10.43;;;6.78;;
21837;SDS011;11081;45.946;6.140;2023-06-10T02:25:35;7.85;;;5.93;;
21837;SDS011;11081;45.946;6.140;2023-06-10T02:28:03;10.20;;;6.47;;
21837;SDS011;11081;45.946;6.140;2023-06-10T02:30:34;11.00;;;6.13;;
21837;SDS011;11081;45.946;6.140;2023-06-10T02:33:03;9.18;;;5.82;;
21837;SDS011;11081;45.946;6.140;2023-06-10T02:35:31;12.05;;;6.13;;
21837;SDS011;11081;45.946;6.140;2023-06-10T02:37:59;10.48;;;6.80;;
21837;SDS011;11081;45.946;6.140;2023-06-10T02:40:28;8.88;;;7.07;;
21837;SDS011;11081;45.946;6.140;2023-06-10T02:42:56;14.05;;;7.50;;
21837;SDS011;11081;45.946;6.140;2023-06-10T02:45:25;12.35;;;7.35;;
21837;SDS011;11081;45.946;6.140;2023-06-10T02:47:56;9.00;;;6.95;;
21837;SDS011;11081;45.946;6.140;2023-06-10T02:50:24;10.57;;;7.38;;
21837;SDS011;11081;45.946;6.140;2023-06-10T02:53:04;14.68;;;7.85;;
21837;SDS011;11081;45.946;6.140;2023-06-10T02:55:34;11.55;;;8.32;;
21837;SDS011;11081;45.946;6.140;2023-06-10T02:58:05;10.95;;;8.20;;
21837;SDS011;11081;45.946;6.140;2023-06-10T03:00:34;10.30;;;7.90;;
21837;SDS011;11081;45.946;6.140;2023-06-10T03:03:04;11.55;;;8.68;;
21837;SDS011;11081;45.946;6.140;2023-06-10T03:05:41;10.65;;;8.45;;
21837;SDS011;11081;45.946;6.140;2023-06-10T03:08:09;12.88;;;8.73;;
21837;SDS011;11081;45.946;6.140;2023-06-10T03:10:40;13.88;;;9.40;;
21837;SDS011;11081;45.946;6.140;2023-06-10T03:13:10;10.45;;;8.68;;
21837;SDS011;11081;45.946;6.140;2023-06-10T03:15:38;11.05;;;7.28;;
21837;SDS011;11081;45.946;6.140;2023-06-10T03:18:12;10.82;;;6.97;;
21837;SDS011;11081;45.946;6.140;2023-06-10T03:20:40;7.38;;;6.10;;
21837;SDS011;11081;45.946;6.140;2023-06-10T03:23:09;11.68;;;6.70;;
21837;SDS011;11081;45.946;6.140;2023-06-10T03:25:39;10.20;;;6.75;;
21837;SDS011;11081;45.946;6.140;2023-06-10T03:28:10;7.72;;;6.32;;
21837;SDS011;11081;45.946;6.140;2023-06-10T03:30:38;9.70;;;6.90;;
21837;SDS011;11081;45.946;6.140;2023-06-10T03:33:08;9.05;;;6.70;;
21837;SDS011;11081;45.946;6.140;2023-06-10T03:35:39;8.52;;;6.60;;
21837;SDS011;11081;45.946;6.140;2023-06-10T03:38:08;7.28;;;6.13;;
21837;SDS011;11081;45.946;6.140;2023-06-10T03:40:36;7.97;;;6.75;;
21837;SDS011;11081;45.946;6.140;2023-06-10T03:43:05;9.75;;;6.93;;
21837;SDS011;11081;45.946;6.140;2023-06-10T03:45:34;10.77;;;6.43;;
21837;SDS011;11081;45.946;6.140;2023-06-10T03:48:03;10.90;;;6.53;;
21837;SDS011;11081;45.946;6.140;2023-06-10T03:50:43;10.23;;;6.50;;
21837;SDS011;11081;45.946;6.140;2023-06-10T03:53:11;9.73;;;6.45;;
21837;SDS011;11081;45.946;6.140;2023-06-10T03:55:42;9.40;;;6.57;;
21837;SDS011;11081;45.946;6.140;2023-06-10T03:58:11;10.35;;;7.10;;
21837;SDS011;11081;45.946;6.140;2023-06-10T04:00:42;8.95;;;6.78;;
21837;SDS011;11081;45.946;6.140;2023-06-10T04:03:10;8.23;;;6.55;;
21837;SDS011;11081;45.946;6.140;2023-06-10T04:05:49;9.73;;;7.15;;
21837;SDS011;11081;45.946;6.140;2023-06-10T04:08:18;9.73;;;6.70;;
21837;SDS011;11081;45.946;6.140;2023-06-10T04:10:47;11.00;;;7.15;;
21837;SDS011;11081;45.946;6.140;2023-06-10T04:13:15;11.15;;;6.55;;
21837;SDS011;11081;45.946;6.140;2023-06-10T04:15:50;8.43;;;6.60;;
21837;SDS011;11081;45.946;6.140;2023-06-10T04:18:19;11.63;;;7.53;;
21837;SDS011;11081;45.946;6.140;2023-06-10T04:20:50;9.52;;;7.32;;
21837;SDS011;11081;45.946;6.140;2023-06-10T04:23:18;12.13;;;7.10;;
21837;SDS011;11081;45.946;6.140;2023-06-10T04:25:46;9.48;;;6.43;;
21837;SDS011;11081;45.946;6.140;2023-06-10T04:28:14;11.30;;;6.78;;
21837;SDS011;11081;45.946;6.140;2023-06-10T04:30:43;7.90;;;6.07;;
21837;SDS011;11081;45.946;6.140;2023-06-10T04:33:12;8.70;;;6.38;;
21837;SDS011;11081;45.946;6.140;2023-06-10T04:35:41;12.52;;;7.13;;
21837;SDS011;11081;45.946;6.140;2023-06-10T04:38:13;11.18;;;6.30;;
21837;SDS011;11081;45.946;6.140;2023-06-10T04:40:42;7.80;;;6.20;;
21837;SDS011;11081;45.946;6.140;2023-06-10T04:43:12;9.18;;;6.80;;
21837;SDS011;11081;45.946;6.140;2023-06-10T04:45:43;9.07;;;6.82;;
21837;SDS011;11081;45.946;6.140;2023-06-10T04:48:12;9.80;;;6.65;;
21837;SDS011;11081;45.946;6.140;2023-06-10T04:50:40;7.13;;;6.30;;
21837;SDS011;11081;45.946;6.140;2023-06-10T04:53:09;9.57;;;6.75;;
21837;SDS011;11081;45.946;6.140;2023-06-10T04:55:42;7.93;;;6.30;;
21837;SDS011;11081;45.946;6.140;2023-06-10T04:58:10;14.38;;;7.68;;
21837;SDS011;11081;45.946;6.140;2023-06-10T05:00:38;8.00;;;5.97;;
21837;SDS011;11081;45.946;6.140;2023-06-10T05:03:06;8.85;;;6.13;;
21837;SDS011;11081;45.946;6.140;2023-06-10T05:05:34;9.30;;;6.40;;
21837;SDS011;11081;45.946;6.140;2023-06-10T05:08:02;11.00;;;6.45;;
21837;SDS011;11081;45.946;6.140;2023-06-10T05:10:34;9.45;;;6.07;;
21837;SDS011;11081;45.946;6.140;2023-06-10T05:13:03;8.07;;;6.40;;
21837;SDS011;11081;45.946;6.140;2023-06-10T05:15:31;8.55;;;6.20;;
21837;SDS011;11081;45.946;6.140;2023-06-10T05:17:59;10.13;;;6.30;;
21837;SDS011;11081;45.946;6.140;2023-06-10T05:20:29;9.75;;;6.63;;
21837;SDS011;11081;45.946;6.140;2023-06-10T05:22:57;6.65;;;5.68;;
21837;SDS011;11081;45.946;6.140;2023-06-10T05:25:25;10.65;;;6.18;;
21837;SDS011;11081;45.946;6.140;2023-06-10T05:27:54;8.48;;;5.95;;
21837;SDS011;11081;45.946;6.140;2023-06-10T05:30:23;8.95;;;6.00;;
21837;SDS011;11081;45.946;6.140;2023-06-10T05:32:53;10.55;;;5.82;;
21837;SDS011;11081;45.946;6.140;2023-06-10T05:35:22;12.02;;;5.93;;
21837;SDS011;11081;45.946;6.140;2023-06-10T05:37:50;8.90;;;6.20;;
21837;SDS011;11081;45.946;6.140;2023-06-10T05:40:18;13.02;;;6.03;;
21837;SDS011;11081;45.946;6.140;2023-06-10T05:42:46;9.82;;;6.30;;
21837;SDS011;11081;45.946;6.140;2023-06-10T05:45:14;9.25;;;6.38;;
21837;SDS011;11081;45.946;6.140;2023-06-10T05:47:44;8.75;;;6.55;;
21837;SDS011;11081;45.946;6.140;2023-06-10T05:50:12;8.85;;;6.32;;
21837;SDS011;11081;45.946;6.140;2023-06-10T05:52:40;8.15;;;6.07;;
21837;SDS011;11081;45.946;6.140;2023-06-10T05:55:08;8.32;;;6.60;;
21837;SDS011;11081;45.946;6.140;2023-06-10T05:57:37;9.77;;;6.70;;
21837;SDS011;11081;45.946;6.140;2023-06-10T06:00:06;11.43;;;6.65;;
21837;SDS011;11081;45.946;6.140;2023-06-10T06:02:38;9.07;;;6.40;;
21837;SDS011;11081;45.946;6.140;2023-06-10T06:05:08;8.50;;;6.47;;
21837;SDS011;11081;45.946;6.140;2023-06-10T06:07:36;12.63;;;6.95;;
21837;SDS011;11081;45.946;6.140;2023-06-10T06:10:05;10.18;;;6.45;;
21837;SDS011;11081;45.946;6.140;2023-06-10T06:12:33;12.25;;;6.53;;
21837;SDS011;11081;45.946;6.140;2023-06-10T06:15:01;10.43;;;6.40;;
21837;SDS011;11081;45.946;6.140;2023-06-10T06:17:29;8.82;;;6.35;;
21837;SDS011;11081;45.946;6.140;2023-06-10T06:19:57;9.00;;;6.13;;
21837;SDS011;11081;45.946;6.140;2023-06-10T06:22:27;11.63;;;7.28;;
21837;SDS011;11081;45.946;6.140;2023-06-10T06:24:57;9.95;;;7.20;;
21837;SDS011;11081;45.946;6.140;2023-06-10T06:27:25;9.18;;;6.30;;
21837;SDS011;11081;45.946;6.140;2023-06-10T06:29:53;10.23;;;6.15;;
21837;SDS011;11081;45.946;6.140;2023-06-10T06:32:21;11.10;;;6.70;;
21837;SDS011;11081;45.946;6.140;2023-06-10T06:34:51;15.25;;;7.32;;
21837;SDS011;11081;45.946;6.140;2023-06-10T06:37:21;10.65;;;8.07;;
21837;SDS011;11081;45.946;6.140;2023-06-10T06:39:57;9.30;;;6.35;;
21837;SDS011;11081;45.946;6.140;2023-06-10T06:42:29;10.38;;;7.18;;
21837;SDS011;11081;45.946;6.140;2023-06-10T06:45:08;12.57;;;6.72;;
21837;SDS011;11081;45.946;6.140;2023-06-10T06:47:38;12.27;;;6.32;;
21837;SDS011;11081;45.946;6.140;2023-06-10T06:50:06;10.48;;;6.82;;
21837;SDS011;11081;45.946;6.140;2023-06-10T06:52:34;11.98;;;7.07;;
21837;SDS011;11081;45.946;6.140;2023-06-10T06:55:04;10.68;;;6.75;;
21837;SDS011;11081;45.946;6.140;2023-06-10T06:57:33;7.90;;;6.50;;
21837;SDS011;11081;45.946;6.140;2023-06-10T07:00:03;9.95;;;7.47;;
21837;SDS011;11081;45.946;6.140;2023-06-10T07:02:32;12.07;;;6.82;;
21837;SDS011;11081;45.946;6.140;2023-06-10T07:05:00;9.35;;;6.50;;
21837;SDS011;11081;45.946;6.140;2023-06-10T07:07:28;9.88;;;7.03;;
21837;SDS011;11081;45.946;6.140;2023-06-10T07:09:56;11.13;;;6.75;;
21837;SDS011;11081;45.946;6.140;2023-06-10T07:12:26;7.70;;;5.70;;
21837;SDS011;11081;45.946;6.140;2023-06-10T07:14:54;8.63;;;5.55;;
21837;SDS011;11081;45.946;6.140;2023-06-10T07:17:22;10.70;;;5.80;;
21837;SDS011;11081;45.946;6.140;2023-06-10T07:19:50;6.78;;;5.47;;
21837;SDS011;11081;45.946;6.140;2023-06-10T07:22:18;6.45;;;5.50;;
21837;SDS011;11081;45.946;6.140;2023-06-10T07:24:46;7.78;;;5.70;;
21837;SDS011;11081;45.946;6.140;2023-06-10T07:27:14;6.65;;;5.13;;
21837;SDS011;11081;45.946;6.140;2023-06-10T07:29:44;9.13;;;5.18;;
21837;SDS011;11081;45.946;6.140;2023-06-10T07:32:12;7.20;;;4.88;;
21837;SDS011;11081;45.946;6.140;2023-06-10T07:34:43;8.07;;;5.18;;
21837;SDS011;11081;45.946;6.140;2023-06-10T07:37:11;8.43;;;4.75;;
21837;SDS011;11081;45.946;6.140;2023-06-10T07:39:39;6.57;;;4.65;;
21837;SDS011;11081;45.946;6.140;2023-06-10T07:42:07;5.15;;;4.57;;
21837;SDS011;11081;45.946;6.140;2023-06-10T07:44:36;5.85;;;4.53;;
21837;SDS011;11081;45.946;6.140;2023-06-10T07:47:06;7.20;;;4.95;;
21837;SDS011;11081;45.946;6.140;2023-06-10T07:49:34;6.85;;;5.13;;
21837;SDS011;11081;45.946;6.140;2023-06-10T07:52:02;7.82;;;5.18;;
21837;SDS011;11081;45.946;6.140;2023-06-10T07:54:30;8.32;;;5.50;;
21837;SDS011;11081;45.946;6.140;2023-06-10T07:56:58;9.68;;;5.30;;
21837;SDS011;11081;45.946;6.140;2023-06-10T07:59:26;6.32;;;5.03;;
21837;SDS011;11081;45.946;6.140;2023-06-10T08:01:54;6.22;;;5.05;;
21837;SDS011;11081;45.946;6.140;2023-06-10T08:04:23;10.20;;;5.18;;
21837;SDS011;11081;45.946;6.140;2023-06-10T08:06:52;6.93;;;5.00;;
21837;SDS011;11081;45.946;6.140;2023-06-10T08:09:20;8.73;;;5.50;;
21837;SDS011;11081;45.946;6.140;2023-06-10T08:11:49;9.50;;;5.85;;
21837;SDS011;11081;45.946;6.140;2023-06-10T08:14:17;5.00;;;4.28;;
21837;SDS011;11081;45.946;6.140;2023-06-10T08:16:45;7.63;;;4.85;;
21837;SDS011;11081;45.946;6.140;2023-06-10T08:19:13;5.65;;;4.38;;
21837;SDS011;11081;45.946;6.140;2023-06-10T08:21:43;8.20;;;5.07;;
21837;SDS011;11081;45.946;6.140;2023-06-10T08:24:11;8.52;;;4.90;;
21837;SDS011;11081;45.946;6.140;2023-06-10T08:26:39;5.18;;;4.22;;
21837;SDS011;11081;45.946;6.140;2023-06-10T08:29:07;6.38;;;3.97;;
21837;SDS011;11081;45.946;6.140;2023-06-10T08:31:35;4.53;;;3.97;;
21837;SDS011;11081;45.946;6.140;2023-06-10T08:34:03;7.13;;;4.03;;
21837;SDS011;11081;45.946;6.140;2023-06-10T08:36:31;4.18;;;3.30;;
21837;SDS011;11081;45.946;6.140;2023-06-10T08:39:00;5.65;;;3.88;;
21837;SDS011;11081;45.946;6.140;2023-06-10T08:41:28;5.95;;;4.20;;
21837;SDS011;11081;45.946;6.140;2023-06-10T08:43:59;4.75;;;3.72;;
21837;SDS011;11081;45.946;6.140;2023-06-10T08:46:34;5.72;;;3.97;;
21837;SDS011;11081;45.946;6.140;2023-06-10T08:49:05;7.03;;;4.22;;
21837;SDS011;11081;45.946;6.140;2023-06-10T08:51:34;6.00;;;4.30;;
21837;SDS011;11081;45.946;6.140;2023-06-10T08:54:05;6.50;;;4.10;;
21837;SDS011;11081;45.946;6.140;2023-06-10T08:56:39;8.85;;;4.72;;
21837;SDS011;11081;45.946;6.140;2023-06-10T08:59:07;6.85;;;4.57;;
21837;SDS011;11081;45.946;6.140;2023-06-10T09:01:37;6.55;;;4.50;;
21837;SDS011;11081;45.946;6.140;2023-06-10T09:04:05;8.10;;;4.10;;
21837;SDS011;11081;45.946;6.140;2023-06-10T09:06:34;5.90;;;3.72;;
21837;SDS011;11081;45.946;6.140;2023-06-10T09:09:05;7.75;;;4.38;;
21837;SDS011;11081;45.946;6.140;2023-06-10T09:11:34;5.63;;;4.32;;
21837;SDS011;11081;45.946;6.140;2023-06-10T09:14:02;5.47;;;4.43;;
21837;SDS011;11081;45.946;6.140;2023-06-10T09:16:30;6.38;;;4.03;;
21837;SDS011;11081;45.946;6.140;2023-06-10T09:18:58;7.03;;;4.07;;
21837;SDS011;11081;45.946;6.140;2023-06-10T09:21:26;9.05;;;5.30;;
21837;SDS011;11081;45.946;6.140;2023-06-10T09:23:55;7.95;;;5.03;;
21837;SDS011;11081;45.946;6.140;2023-06-10T09:26:28;6.13;;;4.97;;
21837;SDS011;11081;45.946;6.140;2023-06-10T09:29:03;6.82;;;4.43;;
21837;SDS011;11081;45.946;6.140;2023-06-10T09:31:32;8.00;;;4.07;;
21837;SDS011;11081;45.946;6.140;2023-06-10T09:34:07;6.22;;;4.43;;
21837;SDS011;11081;45.946;6.140;2023-06-10T09:36:35;6.78;;;4.70;;
21837;SDS011;11081;45.946;6.140;2023-06-10T09:39:04;5.50;;;4.00;;
21837;SDS011;11081;45.946;6.140;2023-06-10T09:41:42;5.30;;;3.53;;
21837;SDS011;11081;45.946;6.140;2023-06-10T09:44:11;6.07;;;3.90;;
21837;SDS011;11081;45.946;6.140;2023-06-10T09:46:41;6.38;;;3.90;;
21837;SDS011;11081;45.946;6.140;2023-06-10T09:49:10;5.15;;;3.92;;
21837;SDS011;11081;45.946;6.140;2023-06-10T09:51:38;6.10;;;4.00;;
21837;SDS011;11081;45.946;6.140;2023-06-10T09:54:17;6.53;;;4.60;;
21837;SDS011;11081;45.946;6.140;2023-06-10T09:56:47;8.55;;;5.32;;
21837;SDS011;11081;45.946;6.140;2023-06-10T09:59:16;8.45;;;4.82;;
21837;SDS011;11081;45.946;6.140;2023-06-10T10:01:55;6.93;;;4.53;;
21837;SDS011;11081;45.946;6.140;2023-06-10T10:04:23;6.00;;;4.50;;
21837;SDS011;11081;45.946;6.140;2023-06-10T10:06:51;7.70;;;4.30;;
21837;SDS011;11081;45.946;6.140;2023-06-10T10:09:20;7.45;;;4.28;;
21837;SDS011;11081;45.946;6.140;2023-06-10T10:11:49;6.95;;;4.38;;
21837;SDS011;11081;45.946;6.140;2023-06-10T10:14:19;6.18;;;4.50;;
21837;SDS011;11081;45.946;6.140;2023-06-10T10:16:48;4.50;;;3.78;;
21837;SDS011;11081;45.946;6.140;2023-06-10T10:19:20;6.45;;;4.38;;
21837;SDS011;11081;45.946;6.140;2023-06-10T10:21:54;7.50;;;4.28;;
21837;SDS011;11081;45.946;6.140;2023-06-10T10:24:31;7.53;;;4.25;;
21837;SDS011;11081;45.946;6.140;2023-06-10T10:27:04;5.53;;;4.50;;
21837;SDS011;11081;45.946;6.140;2023-06-10T10:29:38;6.53;;;4.30;;
21837;SDS011;11081;45.946;6.140;2023-06-10T10:32:07;4.68;;;3.35;;
21837;SDS011;11081;45.946;6.140;2023-06-10T10:34:40;6.50;;;4.00;;
21837;SDS011;11081;45.946;6.140;2023-06-10T10:37:16;6.55;;;3.58;;
21837;SDS011;11081;45.946;6.140;2023-06-10T10:39:45;5.68;;;3.67;;
21837;SDS011;11081;45.946;6.140;2023-06-10T10:42:14;7.60;;;3.92;;
21837;SDS011;11081;45.946;6.140;2023-06-10T10:44:43;5.65;;;3.88;;
21837;SDS011;11081;45.946;6.140;2023-06-10T10:47:12;4.28;;;3.28;;
21837;SDS011;11081;45.946;6.140;2023-06-10T10:49:43;4.35;;;3.38;;
21837;SDS011;11081;45.946;6.140;2023-06-10T10:52:13;4.90;;;3.83;;
21837;SDS011;11081;45.946;6.140;2023-06-10T10:54:43;4.45;;;3.45;;
21837;SDS011;11081;45.946;6.140;2023-06-10T10:57:15;3.65;;;3.22;;
21837;SDS011;11081;45.946;6.140;2023-06-10T10:59:51;4.82;;;3.50;;
21837;SDS011;11081;45.946;6.140;2023-06-10T11:02:32;6.50;;;3.60;;
21837;SDS011;11081;45.946;6.140;2023-06-10T11:05:13;8.00;;;3.75;;
21837;SDS011;11081;45.946;6.140;2023-06-10T11:07:51;5.93;;;3.75;;
21837;SDS011;11081;45.946;6.140;2023-06-10T11:10:28;5.93;;;3.28;;
21837;SDS011;11081;45.946;6.140;2023-06-10T11:12:59;5.22;;;3.47;;
21837;SDS011;11081;45.946;6.140;2023-06-10T11:15:28;6.03;;;3.17;;
21837;SDS011;11081;45.946;6.140;2023-06-10T11:18:06;7.03;;;4.05;;
21837;SDS011;11081;45.946;6.140;2023-06-10T11:20:43;5.72;;;3.30;;
21837;SDS011;11081;45.946;6.140;2023-06-10T11:23:25;5.57;;;3.30;;
21837;SDS011;11081;45.946;6.140;2023-06-10T11:29:09;5.95;;;3.65;;
21837;SDS011;11081;45.946;6.140;2023-06-10T11:31:43;8.55;;;3.78;;
21837;SDS011;11081;45.946;6.140;2023-06-10T11:34:13;7.68;;;3.90;;
21837;SDS011;11081;45.946;6.140;2023-06-10T11:36:43;8.02;;;3.95;;
21837;SDS011;11081;45.946;6.140;2023-06-10T11:39:12;5.95;;;4.75;;
21837;SDS011;11081;45.946;6.140;2023-06-10T11:41:40;7.05;;;4.10;;
21837;SDS011;11081;45.946;6.140;2023-06-10T11:44:10;7.40;;;4.18;;
21837;SDS011;11081;45.946;6.140;2023-06-10T11:46:44;10.90;;;4.25;;
21837;SDS011;11081;45.946;6.140;2023-06-10T11:49:14;9.07;;;4.05;;
21837;SDS011;11081;45.946;6.140;2023-06-10T11:51:42;5.15;;;3.90;;
21837;SDS011;11081;45.946;6.140;2023-06-10T11:54:16;6.78;;;3.22;;
21837;SDS011;11081;45.946;6.140;2023-06-10T11:56:45;5.55;;;3.40;;
21837;SDS011;11081;45.946;6.140;2023-06-10T11:59:16;7.30;;;3.47;;
21837;SDS011;11081;45.946;6.140;2023-06-10T12:01:44;4.47;;;3.45;;
21837;SDS011;11081;45.946;6.140;2023-06-10T12:04:14;5.63;;;3.15;;
21837;SDS011;11081;45.946;6.140;2023-06-10T12:06:45;6.25;;;2.45;;
21837;SDS011;11081;45.946;6.140;2023-06-10T12:09:15;3.47;;;2.45;;
21837;SDS011;11081;45.946;6.140;2023-06-10T12:11:53;3.15;;;2.25;;
21837;SDS011;11081;45.946;6.140;2023-06-10T12:17:22;3.00;;;1.95;;
21837;SDS011;11081;45.946;6.140;2023-06-10T12:19:51;4.82;;;2.22;;
21837;SDS011;11081;45.946;6.140;2023-06-10T12:22:19;2.70;;;1.75;;
21837;SDS011;11081;45.946;6.140;2023-06-10T12:24:57;5.72;;;1.98;;
21837;SDS011;11081;45.946;6.140;2023-06-10T12:27:27;4.97;;;2.28;;
21837;SDS011;11081;45.946;6.140;2023-06-10T12:29:57;4.03;;;2.80;;
21837;SDS011;11081;45.946;6.140;2023-06-10T12:32:36;6.82;;;2.80;;
21837;SDS011;11081;45.946;6.140;2023-06-10T12:35:06;3.63;;;2.97;;
21837;SDS011;11081;45.946;6.140;2023-06-10T12:37:36;3.42;;;2.75;;
21837;SDS011;11081;45.946;6.140;2023-06-10T12:40:08;3.70;;;2.85;;
21837;SDS011;11081;45.946;6.140;2023-06-10T12:42:38;4.13;;;2.80;;
21837;SDS011;11081;45.946;6.140;2023-06-10T12:45:08;4.55;;;2.85;;
21837;SDS011;11081;45.946;6.140;2023-06-10T12:47:37;5.43;;;2.63;;
21837;SDS011;11081;45.946;6.140;2023-06-10T12:50:06;3.45;;;2.10;;
21837;SDS011;11081;45.946;6.140;2023-06-10T12:52:35;4.50;;;2.33;;
21837;SDS011;11081;45.946;6.140;2023-06-10T12:55:04;7.15;;;2.45;;
21837;SDS011;11081;45.946;6.140;2023-06-10T12:57:33;6.90;;;2.58;;
21837;SDS011;11081;45.946;6.140;2023-06-10T13:00:01;5.25;;;2.28;;
21837;SDS011;11081;45.946;6.140;2023-06-10T13:02:32;4.30;;;2.20;;
21837;SDS011;11081;45.946;6.140;2023-06-10T13:05:01;6.35;;;2.70;;
21837;SDS011;11081;45.946;6.140;2023-06-10T13:07:30;3.88;;;2.05;;
21837;SDS011;11081;45.946;6.140;2023-06-10T13:09:58;4.22;;;2.17;;
21837;SDS011;11081;45.946;6.140;2023-06-10T13:12:27;3.47;;;2.08;;
21837;SDS011;11081;45.946;6.140;2023-06-10T13:15:11;2.67;;;2.10;;
21837;SDS011;11081;45.946;6.140;2023-06-10T13:17:43;4.22;;;2.55;;
21837;SDS011;11081;45.946;6.140;2023-06-10T13:20:12;3.80;;;2.80;;
21837;SDS011;11081;45.946;6.140;2023-06-10T13:22:40;3.58;;;2.85;;
21837;SDS011;11081;45.946;6.140;2023-06-10T13:25:08;5.75;;;3.05;;
21837;SDS011;11081;45.946;6.140;2023-06-10T13:27:38;3.42;;;2.92;;
21837;SDS011;11081;45.946;6.140;2023-06-10T13:30:06;4.50;;;3.20;;
21837;SDS011;11081;45.946;6.140;2023-06-10T13:32:35;5.35;;;2.90;;
21837;SDS011;11081;45.946;6.140;2023-06-10T13:35:05;6.03;;;3.08;;
21837;SDS011;11081;45.946;6.140;2023-06-10T13:37:35;2.95;;;2.47;;
21837;SDS011;11081;45.946;6.140;2023-06-10T13:40:04;4.03;;;2.92;;
21837;SDS011;11081;45.946;6.140;2023-06-10T13:42:34;4.40;;;2.75;;
21837;SDS011;11081;45.946;6.140;2023-06-10T13:45:04;4.18;;;3.13;;
21837;SDS011;11081;45.946;6.140;2023-06-10T13:47:32;3.20;;;2.58;;
21837;SDS011;11081;45.946;6.140;2023-06-10T13:50:00;4.22;;;3.13;;
21837;SDS011;11081;45.946;6.140;2023-06-10T13:52:30;3.58;;;2.80;;
21837;SDS011;11081;45.946;6.140;2023-06-10T13:54:58;4.35;;;3.00;;
21837;SDS011;11081;45.946;6.140;2023-06-10T13:57:26;4.13;;;2.63;;
21837;SDS011;11081;45.946;6.140;2023-06-10T13:59:54;6.10;;;2.83;;
21837;SDS011;11081;45.946;6.140;2023-06-10T14:02:22;4.13;;;2.92;;
21837;SDS011;11081;45.946;6.140;2023-06-10T14:04:51;2.97;;;2.67;;
21837;SDS011;11081;45.946;6.140;2023-06-10T14:07:19;4.75;;;2.90;;
21837;SDS011;11081;45.946;6.140;2023-06-10T14:09:48;3.65;;;2.63;;
21837;SDS011;11081;45.946;6.140;2023-06-10T14:12:17;5.32;;;2.70;;
21837;SDS011;11081;45.946;6.140;2023-06-10T14:14:45;5.70;;;2.90;;
21837;SDS011;11081;45.946;6.140;2023-06-10T14:17:13;3.42;;;2.80;;
21837;SDS011;11081;45.946;6.140;2023-06-10T14:19:41;5.30;;;3.13;;
21837;SDS011;11081;45.946;6.140;2023-06-10T14:22:09;3.17;;;2.72;;
21837;SDS011;11081;45.946;6.140;2023-06-10T14:24:37;4.97;;;3.15;;
21837;SDS011;11081;45.946;6.140;2023-06-10T14:27:06;4.28;;;3.00;;
21837;SDS011;11081;45.946;6.140;2023-06-10T14:29:34;3.70;;;3.15;;
21837;SDS011;11081;45.946;6.140;2023-06-10T14:32:03;4.60;;;3.13;;
21837;SDS011;11081;45.946;6.140;2023-06-10T14:34:34;5.53;;;2.75;;
21837;SDS011;11081;45.946;6.140;2023-06-10T14:37:03;9.10;;;3.40;;
21837;SDS011;11081;45.946;6.140;2023-06-10T14:39:33;4.55;;;2.80;;
21837;SDS011;11081;45.946;6.140;2023-06-10T14:42:02;5.88;;;3.35;;
21837;SDS011;11081;45.946;6.140;2023-06-10T14:44:32;5.25;;;3.10;;
21837;SDS011;11081;45.946;6.140;2023-06-10T14:47:00;5.00;;;3.10;;
21837;SDS011;11081;45.946;6.140;2023-06-10T14:49:29;6.32;;;3.20;;
21837;SDS011;11081;45.946;6.140;2023-06-10T14:51:57;4.93;;;3.35;;
21837;SDS011;11081;45.946;6.140;2023-06-10T14:54:25;6.00;;;3.33;;
21837;SDS011;11081;45.946;6.140;2023-06-10T14:56:54;8.48;;;2.90;;
21837;SDS011;11081;45.946;6.140;2023-06-10T14:59:21;5.30;;;3.13;;
21837;SDS011;11081;45.946;6.140;2023-06-10T15:01:51;5.50;;;3.08;;
21837;SDS011;11081;45.946;6.140;2023-06-10T15:04:19;5.32;;;2.95;;
21837;SDS011;11081;45.946;6.140;2023-06-10T15:06:49;4.90;;;3.10;;